This is the latest recevied weather packets stored in our database for station/object EA5GTE-12. If no packets are shown the sender has not sent any weather packets the latest 10 day(s).
| Time | Temp. | Humidity | Pressure | Rain* | Wind** | Luminosity | Snow |
|---|---|---|---|---|---|---|---|
| 1787891902 | 15° C | 81% | 941.9 hPa | - | - | - | - |
| 1787890104 | 15.56° C | 75% | 941.8 hPa | - | - | - | - |
| 1787889204 | 16.11° C | 72% | 941.7 hPa | - | - | - | - |
| 1787888304 | 16.11° C | 70% | 941.7 hPa | - | - | - | - |
| 1787887403 | 16.67° C | 69% | 941.7 hPa | - | - | - | - |
| 1787886503 | 16.67° C | 72% | 941.7 hPa | - | - | - | - |
| 1787885603 | 17.22° C | 73% | 941.7 hPa | - | - | - | - |
| 1787884703 | 17.22° C | 69% | 941.3 hPa | - | - | - | - |
| 1787883803 | 17.22° C | 69% | 941.6 hPa | - | - | - | - |
| 1787882903 | 17.78° C | 64% | 941.3 hPa | - | - | - | - |
| 1787882003 | 17.78° C | 64% | 941.5 hPa | - | - | - | - |
| 1787881103 | 17.78° C | 63% | 941.7 hPa | - | - | - | - |
| 1787880202 | 17.78° C | 62% | 941.6 hPa | - | - | - | - |
| 1787879302 | 17.78° C | 61% | 941.4 hPa | - | - | - | - |
| 1787878402 | 17.78° C | 58% | 941.4 hPa | - | - | - | - |
| 1787877502 | 17.78° C | 56% | 941.4 hPa | - | - | - | - |
| 1787876602 | 17.78° C | 54% | 941.3 hPa | - | - | - | - |
| 1787875702 | 17.78° C | 53% | 941.5 hPa | - | - | - | - |
| 1787874802 | 17.78° C | 51% | 941.6 hPa | - | - | - | - |
| 1787873902 | 17.78° C | 48% | 941.4 hPa | - | - | - | - |
| 1787873002 | 18.33° C | 45% | 941.5 hPa | - | - | - | - |
| 1787872102 | 18.33° C | 42% | 941.3 hPa | - | - | - | - |
| 1787871202 | 18.33° C | 41% | 941.2 hPa | - | - | - | - |
| 1787870302 | 18.33° C | 40% | 940.8 hPa | - | - | - | - |
| 1787868501 | 19.44° C | 34% | 940.5 hPa | - | - | - | - |
* Rain since midnight (hover to see other rain measurements)
** Current wind speed in m/s (hover to see current wind gust speed)